Portada
METAR-TAF:

METAR-TAF

Aeroports :

Quentin Aanenson Field

Luverne, Minnesota, Estats Units d'Amèrica

latitud: 43-37-16N, longitud: 096-12-58W, altitud: 436 m

Observació

L'informe es va fer fa 24 minuts, a les 05:35 UTC
Vent calma
Temperatura 16°C
Humitat 94%
Pressió 1019 hPa
Visibilitat: 2.8 km
boirina

METAR: KLYV 200535Z AUTO 00000KT 1 3/4SM BR VV007 16/15 A3008 RMK AO2 VIS 1/2V5

Hora: 00:59 (05:59 UTC)


TAF: manca

Observacions i pronòstics meteorològics de més de 4000 aeroports (METAR i TAF).

Les estacions disponibles són els punts grocs i vermells al mapa.

Posi el ratolí al punt desitjat per veure el nom de l'estació.

Feu clic per veure les observacions i els pronòstics meteorològics.

Per canviar el mapa: feu clic els botons verds amb una creu de color negre per apropar; al botó verd amb un guió per allunyar la imatge; o en les fletxes verdes per a mapes adjacents.


METAR-TAF: